Time,TemperatureF,DewpointF,PressureIn,WindDirection,WindDirectionDegrees,WindSpeedMPH,WindSpeedGustMPH,Humidity,HourlyPrecipIn,Conditions,Clouds,dailyrainin,SoftwareType,DateUTC
2013-01-19 00:00:00,45.5,20.8,30.13,ENE,58,1.0,6.0,37,0.00,,---,0.00,VWS V14.01,2013-01-19 07:00:00,
2013-01-19 00:05:00,45.3,21.2,30.13,ENE,77,2.0,6.0,38,0.00,,---,0.00,VWS V14.01,2013-01-19 07:05:00,
2013-01-19 00:10:00,44.7,20.7,30.13,NE,51,2.0,6.0,38,0.00,,---,0.00,VWS V14.01,2013-01-19 07:10:00,
2013-01-19 00:15:00,45.1,20.4,30.13,NE,53,2.0,6.0,37,0.00,,---,0.00,VWS V14.01,2013-01-19 07:15:00,
2013-01-19 00:20:00,45.7,20.3,30.13,NE,46,4.0,7.0,36,0.00,,---,0.00,VWS V14.01,2013-01-19 07:20:00,
2013-01-19 00:25:00,46.5,20.3,30.13,NE,44,3.0,7.0,35,0.00,,---,0.00,VWS V14.01,2013-01-19 07:25:00,
2013-01-19 00:30:00,46.8,19.9,30.13,NE,51,2.0,7.0,34,0.00,,---,0.00,VWS V14.01,2013-01-19 07:30:00,
2013-01-19 00:35:00,46.7,20.5,30.13,NE,42,4.0,5.0,35,0.00,,---,0.00,VWS V14.01,2013-01-19 07:35:00,
2013-01-19 00:40:00,45.5,20.1,30.13,NE,47,2.0,5.0,36,0.00,,---,0.00,VWS V14.01,2013-01-19 07:40:00,
2013-01-19 00:45:00,44.4,20.4,30.13,NE,50,2.0,5.0,38,0.00,,---,0.00,VWS V14.01,2013-01-19 07:45:00,
2013-01-19 00:50:00,44.0,20.6,30.13,NE,50,2.0,5.0,39,0.00,,---,0.00,VWS V14.01,2013-01-19 07:50:00,
2013-01-19 00:55:00,43.5,20.8,30.13,NE,56,2.0,5.0,40,0.00,,---,0.00,VWS V14.01,2013-01-19 07:55:00,
2013-01-19 01:00:00,43.0,20.9,30.13,NE,56,2.0,5.0,41,0.00,,---,0.00,VWS V14.01,2013-01-19 08:00:00,
2013-01-19 01:05:00,42.8,20.8,30.13,NE,41,2.0,4.0,41,0.00,,---,0.00,VWS V14.01,2013-01-19 08:05:00,
2013-01-19 01:10:00,42.8,20.8,30.13,NE,49,2.0,4.0,41,0.00,,---,0.00,VWS V14.01,2013-01-19 08:10:00,
2013-01-19 01:15:00,42.9,20.8,30.13,NNE,29,2.0,4.0,41,0.00,,---,0.00,VWS V14.01,2013-01-19 08:15:00,
2013-01-19 01:20:00,43.2,20.5,30.13,NE,41,1.0,4.0,40,0.00,,---,0.00,VWS V14.01,2013-01-19 08:20:00,
2013-01-19 01:26:00,43.7,20.4,30.13,NE,47,1.0,4.0,39,0.00,,---,0.00,VWS V14.01,2013-01-19 08:26:00,
2013-01-19 01:31:00,43.8,20.5,30.13,NE,40,2.0,4.0,39,0.00,,---,0.00,VWS V14.01,2013-01-19 08:31:00,
2013-01-19 01:36:00,44.2,19.6,30.14,NE,34,3.0,4.0,37,0.00,,---,0.00,VWS V14.01,2013-01-19 08:36:00,
2013-01-19 01:41:00,45.2,19.9,30.14,NNE,25,3.0,4.0,36,0.00,,---,0.00,VWS V14.01,2013-01-19 08:41:00,
2013-01-19 01:46:00,45.7,19.6,30.13,NE,49,2.0,5.0,35,0.00,,---,0.00,VWS V14.01,2013-01-19 08:46:00,
2013-01-19 01:51:00,45.2,19.9,30.14,NE,49,2.0,5.0,36,0.00,,---,0.00,VWS V14.01,2013-01-19 08:51:00,
2013-01-19 01:56:00,44.3,19.7,30.13,NE,53,1.0,5.0,37,0.00,,---,0.00,VWS V14.01,2013-01-19 08:56:00,
2013-01-19 02:01:00,44.3,19.7,30.13,NE,55,3.0,5.0,37,0.00,,---,0.00,VWS V14.01,2013-01-19 09:01:00,
2013-01-19 02:06:00,44.7,20.0,30.14,ENE,58,1.0,3.0,37,0.00,,---,0.00,VWS V14.01,2013-01-19 09:06:00,
2013-01-19 02:12:00,44.0,20.0,30.14,ENE,77,1.0,3.0,38,0.00,,---,0.00,VWS V14.01,2013-01-19 09:12:00,
2013-01-19 02:17:00,42.9,20.3,30.14,ENE,61,3.0,3.0,40,0.00,,---,0.00,VWS V14.01,2013-01-19 09:17:00,
2013-01-19 02:22:00,42.0,20.6,30.14,ENE,64,2.0,3.0,42,0.00,,---,0.00,VWS V14.01,2013-01-19 09:22:00,
2013-01-19 02:27:00,41.8,20.4,30.14,NE,53,2.0,4.0,42,0.00,,---,0.00,VWS V14.01,2013-01-19 09:27:00,
2013-01-19 02:32:00,41.7,20.3,30.14,NE,55,2.0,4.0,42,0.00,,---,0.00,VWS V14.01,2013-01-19 09:32:00,
2013-01-19 02:37:00,41.7,20.3,30.14,ENE,64,2.0,2.0,42,0.00,,---,0.00,VWS V14.01,2013-01-19 09:37:00,
2013-01-19 02:42:00,41.5,20.7,30.14,NE,37,3.0,3.0,43,0.00,,---,0.00,VWS V14.01,2013-01-19 09:42:00,
2013-01-19 02:47:00,42.2,20.2,30.14,NE,46,1.0,4.0,41,0.00,,---,0.00,VWS V14.01,2013-01-19 09:47:00,
2013-01-19 02:52:00,43.2,20.5,30.14,NE,45,4.0,4.0,40,0.00,,---,0.00,VWS V14.01,2013-01-19 09:52:00,
2013-01-19 02:57:00,45.2,20.5,30.14,NNE,32,4.0,6.0,37,0.00,,---,0.00,VWS V14.01,2013-01-19 09:57:00,
2013-01-19 03:02:00,46.2,20.1,30.14,NE,45,4.0,8.0,35,0.00,,---,0.00,VWS V14.01,2013-01-19 10:02:00,
2013-01-19 03:07:00,46.9,20.0,30.14,NE,47,2.0,5.0,34,0.00,,---,0.00,VWS V14.01,2013-01-19 10:07:00,
2013-01-19 03:12:00,47.3,20.4,30.14,NNE,33,5.0,9.0,34,0.00,,---,0.00,VWS V14.01,2013-01-19 10:12:00,
2013-01-19 03:17:00,47.9,20.2,30.14,ENE,71,3.0,9.0,33,0.00,,---,0.00,VWS V14.01,2013-01-19 10:17:00,
2013-01-19 03:22:00,47.5,19.9,30.14,NE,48,2.0,9.0,33,0.00,,---,0.00,VWS V14.01,2013-01-19 10:22:00,
2013-01-19 03:27:00,46.7,19.8,30.14,ENE,64,2.0,9.0,34,0.00,,---,0.00,VWS V14.01,2013-01-19 10:27:00,
2013-01-19 03:32:00,46.9,20.0,30.13,NE,37,6.0,9.0,34,0.00,,---,0.00,VWS V14.01,2013-01-19 10:32:00,
2013-01-19 03:37:00,47.7,20.0,30.13,NE,49,3.0,8.0,33,0.00,,---,0.00,VWS V14.01,2013-01-19 10:37:00,
2013-01-19 03:43:00,48.2,19.7,30.13,NNE,18,6.0,11.0,32,0.00,,---,0.00,VWS V14.01,2013-01-19 10:43:00,
2013-01-19 03:48:00,48.4,19.9,30.13,North,356,6.0,11.0,32,0.00,,---,0.00,VWS V14.01,2013-01-19 10:48:00,
2013-01-19 03:53:00,48.4,19.2,30.13,NNE,20,4.0,11.0,31,0.00,,---,0.00,VWS V14.01,2013-01-19 10:53:00,
2013-01-19 03:58:00,48.5,19.3,30.13,NE,35,3.0,11.0,31,0.00,,---,0.00,VWS V14.01,2013-01-19 10:58:00,
2013-01-19 04:03:00,48.6,19.4,30.13,North,354,7.0,11.0,31,0.00,,---,0.00,VWS V14.01,2013-01-19 11:03:00,
2013-01-19 04:08:00,48.5,18.5,30.13,NE,47,2.0,11.0,30,0.00,,---,0.00,VWS V14.01,2013-01-19 11:08:00,
2013-01-19 04:13:00,47.1,18.8,30.14,ENE,58,0.0,11.0,32,0.00,,---,0.00,VWS V14.01,2013-01-19 11:13:00,
2013-01-19 05:47:00,38.1,19.7,30.15,ENE,63,2.0,6.0,47,0.00,,---,0.00,VWS V14.01,2013-01-19 12:47:00,
2013-01-19 05:48:00,38.1,19.7,30.15,ENE,61,1.0,6.0,47,0.00,,---,0.00,VWS V14.01,2013-01-19 12:48:00,
2013-01-19 05:49:00,38.0,19.6,30.15,NE,55,1.0,6.0,47,0.00,,---,0.00,VWS V14.01,2013-01-19 12:49:00,
2013-01-19 05:54:00,38.0,19.6,30.15,ENE,58,3.0,6.0,47,0.00,,---,0.00,VWS V14.01,2013-01-19 12:54:00,
2013-01-19 05:59:00,38.9,19.4,30.15,NE,46,1.0,6.0,45,0.00,,---,0.00,VWS V14.01,2013-01-19 12:59:00,
2013-01-19 06:04:00,40.0,19.9,30.15,ENE,64,1.0,3.0,44,0.00,,---,0.00,VWS V14.01,2013-01-19 13:04:00,
2013-01-19 06:09:00,39.9,19.2,30.15,NE,54,3.0,4.0,43,0.00,,---,0.00,VWS V14.01,2013-01-19 13:09:00,
2013-01-19 06:14:00,38.8,19.3,30.15,ENE,65,2.0,5.0,45,0.00,,---,0.00,VWS V14.01,2013-01-19 13:14:00,
2013-01-19 06:19:00,38.1,19.2,30.15,ENE,58,2.0,5.0,46,0.00,,---,0.00,VWS V14.01,2013-01-19 13:19:00,
2013-01-19 06:24:00,37.7,19.3,30.15,ENE,68,2.0,5.0,47,0.00,,---,0.00,VWS V14.01,2013-01-19 13:24:00,
2013-01-19 06:29:00,37.6,19.2,30.15,NE,51,3.0,5.0,47,0.00,,---,0.00,VWS V14.01,2013-01-19 13:29:00,
2013-01-19 06:34:00,38.1,19.7,30.15,NE,49,3.0,4.0,47,0.00,,---,0.00,VWS V14.01,2013-01-19 13:34:00,
2013-01-19 06:39:00,39.3,19.8,30.15,ENE,58,3.0,5.0,45,0.00,,---,0.00,VWS V14.01,2013-01-19 13:39:00,
2013-01-19 06:44:00,40.9,19.6,30.15,NNE,19,5.0,6.0,42,0.00,,---,0.00,VWS V14.01,2013-01-19 13:44:00,
2013-01-19 06:49:00,42.2,19.6,30.16,East,81,2.0,6.0,40,0.00,,---,0.00,VWS V14.01,2013-01-19 13:49:00,
2013-01-19 06:54:00,41.9,19.4,30.16,ENE,58,2.0,6.0,40,0.00,,---,0.00,VWS V14.01,2013-01-19 13:54:00,
2013-01-19 06:59:00,41.8,19.3,30.16,NE,51,2.0,6.0,40,0.00,,---,0.00,VWS V14.01,2013-01-19 13:59:00,
2013-01-19 07:04:00,41.3,19.4,30.16,NE,37,3.0,5.0,41,0.00,,---,0.00,VWS V14.01,2013-01-19 14:04:00,
2013-01-19 07:09:00,41.1,19.8,30.16,ENE,64,2.0,6.0,42,0.00,,---,0.00,VWS V14.01,2013-01-19 14:09:00,
2013-01-19 07:14:00,41.6,19.7,30.16,NE,39,4.0,6.0,41,0.00,,---,0.00,VWS V14.01,2013-01-19 14:14:00,
2013-01-19 07:20:00,42.3,19.7,30.16,NNE,25,6.0,6.0,40,0.00,,---,0.00,VWS V14.01,2013-01-19 14:20:00,
2013-01-19 07:25:00,43.1,19.2,30.17,NNE,30,7.0,8.0,38,0.00,,---,0.00,VWS V14.01,2013-01-19 14:25:00,
2013-01-19 07:30:00,44.7,19.4,30.17,NNE,23,5.0,10.0,36,0.00,,---,0.00,VWS V14.01,2013-01-19 14:30:00,
2013-01-19 07:35:00,45.5,19.5,30.17,NNE,18,7.0,9.0,35,0.00,,---,0.00,VWS V14.01,2013-01-19 14:35:00,
2013-01-19 07:40:00,45.9,19.1,30.17,North,353,3.0,9.0,34,0.00,,---,0.00,VWS V14.01,2013-01-19 14:40:00,
2013-01-19 07:45:00,46.1,19.3,30.17,NNE,25,7.0,9.0,34,0.00,,---,0.00,VWS V14.01,2013-01-19 14:45:00,
2013-01-19 07:50:00,46.3,18.8,30.18,NW,325,2.0,10.0,33,0.00,,---,0.00,VWS V14.01,2013-01-19 14:50:00,
2013-01-19 07:55:00,46.3,18.8,30.18,NE,53,5.0,11.0,33,0.00,,---,0.00,VWS V14.01,2013-01-19 14:55:00,
2013-01-19 08:00:00,46.6,19.0,30.18,NNW,332,4.0,11.0,33,0.00,,---,0.00,VWS V14.01,2013-01-19 15:00:00,
2013-01-19 08:05:00,46.8,19.2,30.18,NE,47,3.0,10.0,33,0.00,,---,0.00,VWS V14.01,2013-01-19 15:05:00,
2013-01-19 08:10:00,47.5,19.1,30.18,NNE,20,5.0,11.0,32,0.00,,---,0.00,VWS V14.01,2013-01-19 15:10:00,
2013-01-19 08:15:00,48.1,18.9,30.19,NE,35,5.0,11.0,31,0.00,,---,0.00,VWS V14.01,2013-01-19 15:15:00,
2013-01-19 08:20:00,48.1,19.6,30.19,NE,53,1.0,11.0,32,0.00,,---,0.00,VWS V14.01,2013-01-19 15:20:00,
2013-01-19 08:25:00,47.6,19.9,30.19,NNE,19,2.0,11.0,33,0.00,,---,0.00,VWS V14.01,2013-01-19 15:25:00,
2013-01-19 08:30:00,47.4,20.5,30.19,NNE,32,2.0,11.0,34,0.00,,---,0.00,VWS V14.01,2013-01-19 15:30:00,
2013-01-19 08:35:00,47.2,20.3,30.19,NE,46,3.0,3.0,34,0.00,,---,0.00,VWS V14.01,2013-01-19 15:35:00,
2013-01-19 08:40:00,47.3,20.4,30.19,NE,40,1.0,4.0,34,0.00,,---,0.00,VWS V14.01,2013-01-19 15:40:00,
2013-01-19 08:45:00,47.8,20.8,30.19,ENE,61,2.0,5.0,34,0.00,,---,0.00,VWS V14.01,2013-01-19 15:45:00,
2013-01-19 08:50:00,49.0,19.7,30.19,NE,39,4.0,8.0,31,0.00,,---,0.00,VWS V14.01,2013-01-19 15:50:00,
2013-01-19 08:56:00,50.5,19.5,30.19,NNW,332,4.0,9.0,29,0.00,,---,0.00,VWS V14.01,2013-01-19 15:56:00,
2013-01-19 09:01:00,51.4,19.4,30.19,NNW,334,2.0,9.0,28,0.00,,---,0.00,VWS V14.01,2013-01-19 16:01:00,
2013-01-19 09:06:00,52.2,19.2,30.20,NNE,30,3.0,11.0,27,0.00,,---,0.00,VWS V14.01,2013-01-19 16:06:00,
2013-01-19 09:11:00,52.9,19.0,30.20,NNW,332,6.0,11.0,26,0.00,,---,0.00,VWS V14.01,2013-01-19 16:11:00,
2013-01-19 09:16:00,53.6,18.6,30.20,NNE,25,7.0,13.0,25,0.00,,---,0.00,VWS V14.01,2013-01-19 16:16:00,
2013-01-19 09:21:00,54.3,19.2,30.20,North,360,2.0,13.0,25,0.00,,---,0.00,VWS V14.01,2013-01-19 16:21:00,
2013-01-19 09:27:00,54.9,18.8,30.20,NNW,340,5.0,13.0,24,0.00,,---,0.00,VWS V14.01,2013-01-19 16:27:00,
2013-01-19 09:32:00,55.5,19.3,30.20,North,11,4.0,13.0,24,0.00,,---,0.00,VWS V14.01,2013-01-19 16:32:00,
2013-01-19 09:37:00,56.1,18.8,30.20,NNE,30,6.0,11.0,23,0.00,,---,0.00,VWS V14.01,2013-01-19 16:37:00,
2013-01-19 09:42:00,56.5,19.2,30.21,ENE,57,5.0,12.0,23,0.00,,---,0.00,VWS V14.01,2013-01-19 16:42:00,
2013-01-19 09:47:00,57.0,19.6,30.21,North,4,3.0,12.0,23,0.00,,---,0.00,VWS V14.01,2013-01-19 16:47:00,
2013-01-19 09:52:00,57.4,19.9,30.20,NE,37,7.0,12.0,23,0.00,,---,0.00,VWS V14.01,2013-01-19 16:52:00,
2013-01-19 09:57:00,57.7,20.2,30.21,NE,34,3.0,12.0,23,0.00,,---,0.00,VWS V14.01,2013-01-19 16:57:00,
2013-01-19 10:02:00,58.1,19.5,30.21,NNE,27,3.0,12.0,22,0.00,,---,0.00,VWS V14.01,2013-01-19 17:02:00,
2013-01-19 10:07:00,58.4,19.7,30.21,NE,46,9.0,13.0,22,0.00,,---,0.00,VWS V14.01,2013-01-19 17:07:00,
2013-01-19 10:13:00,58.9,20.1,30.21,North,356,4.0,13.0,22,0.00,,---,0.00,VWS V14.01,2013-01-19 17:13:00,
2013-01-19 10:18:00,59.5,19.6,30.21,ENE,68,2.0,13.0,21,0.00,,---,0.00,VWS V14.01,2013-01-19 17:18:00,
2013-01-19 10:23:00,60.2,20.1,30.21,NNW,343,4.0,13.0,21,0.00,,---,0.00,VWS V14.01,2013-01-19 17:23:00,
2013-01-19 10:28:00,60.5,19.2,30.21,NNE,22,6.0,13.0,20,0.00,,---,0.00,VWS V14.01,2013-01-19 17:28:00,
2013-01-19 10:33:00,60.9,19.6,30.21,North,8,3.0,7.0,20,0.00,,---,0.00,VWS V14.01,2013-01-19 17:33:00,
2013-01-19 10:38:00,61.4,20.0,30.21,North,356,5.0,9.0,20,0.00,,---,0.00,VWS V14.01,2013-01-19 17:38:00,
2013-01-19 10:44:00,61.6,20.2,30.20,NNE,20,4.0,11.0,20,0.00,,---,0.00,VWS V14.01,2013-01-19 17:44:00,
2013-01-19 10:49:00,61.9,19.2,30.20,NE,43,9.0,11.0,19,0.00,,---,0.00,VWS V14.01,2013-01-19 17:49:00,
2013-01-19 10:54:00,62.3,19.5,30.20,NE,43,6.0,11.0,19,0.00,,---,0.00,VWS V14.01,2013-01-19 17:54:00,
2013-01-19 10:59:00,62.9,20.0,30.20,NNE,13,5.0,11.0,19,0.00,,---,0.00,VWS V14.01,2013-01-19 17:59:00,
2013-01-19 11:04:00,63.5,19.3,30.19,NNE,29,8.0,8.0,18,0.00,,---,0.00,VWS V14.01,2013-01-19 18:04:00,
2013-01-19 11:09:00,64.0,18.3,30.19,NNE,24,8.0,11.0,17,0.00,,---,0.00,VWS V14.01,2013-01-19 18:09:00,
2013-01-19 11:14:00,64.3,19.9,30.19,NE,54,9.0,11.0,18,0.00,,---,0.00,VWS V14.01,2013-01-19 18:14:00,
2013-01-19 11:19:00,65.0,19.2,30.18,NNE,15,7.0,11.0,17,0.00,,---,0.00,VWS V14.01,2013-01-19 18:19:00,
2013-01-19 11:25:00,65.9,18.5,30.18,ENE,58,4.0,11.0,16,0.00,,---,0.00,VWS V14.01,2013-01-19 18:25:00,
2013-01-19 11:30:00,66.4,18.9,30.18,WNW,299,3.0,11.0,16,0.00,,---,0.00,VWS V14.01,2013-01-19 18:30:00,
2013-01-19 11:35:00,67.0,19.4,30.18,NNE,20,8.0,8.0,16,0.00,,---,0.00,VWS V14.01,2013-01-19 18:35:00,
2013-01-19 11:40:00,67.1,19.4,30.17,North,9,5.0,11.0,16,0.00,,---,0.00,VWS V14.01,2013-01-19 18:40:00,
2013-01-19 11:45:00,67.1,17.9,30.17,North,5,5.0,11.0,15,0.00,,---,0.00,VWS V14.01,2013-01-19 18:45:00,
2013-01-19 11:50:00,67.9,18.6,30.17,NNE,16,2.0,11.0,15,0.00,,---,0.00,VWS V14.01,2013-01-19 18:50:00,
2013-01-19 11:55:00,68.0,17.1,30.16,NW,312,5.0,11.0,14,0.00,,---,0.00,VWS V14.01,2013-01-19 18:55:00,
2013-01-19 12:01:00,68.8,17.7,30.16,NNE,33,6.0,11.0,14,0.00,,---,0.00,VWS V14.01,2013-01-19 19:01:00,
2013-01-19 12:06:00,69.3,18.1,30.15,NNE,16,3.0,9.0,14,0.00,,---,0.00,VWS V14.01,2013-01-19 19:06:00,
2013-01-19 12:11:00,70.0,16.9,30.15,NE,40,1.0,9.0,13,0.00,,---,0.00,VWS V14.01,2013-01-19 19:11:00,
2013-01-19 12:16:00,70.6,17.4,30.15,North,6,6.0,9.0,13,0.00,,---,0.00,VWS V14.01,2013-01-19 19:16:00,
2013-01-19 12:21:00,70.3,17.2,30.14,NNE,27,4.0,9.0,13,0.00,,---,0.00,VWS V14.01,2013-01-19 19:21:00,
2013-01-19 12:27:00,70.2,15.2,30.14,NNE,15,4.0,9.0,12,0.00,,---,0.00,VWS V14.01,2013-01-19 19:27:00,
2013-01-19 12:32:00,69.9,16.9,30.14,NNW,345,2.0,10.0,13,0.00,,---,0.00,VWS V14.01,2013-01-19 19:32:00,
2013-01-19 12:37:00,70.7,15.6,30.13,NE,41,4.0,6.0,12,0.00,,---,0.00,VWS V14.01,2013-01-19 19:37:00,
2013-01-19 12:42:00,71.1,17.8,30.13,North,1,3.0,8.0,13,0.00,,---,0.00,VWS V14.01,2013-01-19 19:42:00,
2013-01-19 12:47:00,71.7,16.4,30.12,NE,47,2.0,8.0,12,0.00,,---,0.00,VWS V14.01,2013-01-19 19:47:00,
2013-01-19 12:53:00,72.1,16.7,30.12,NNE,12,3.0,8.0,12,0.00,,---,0.00,VWS V14.01,2013-01-19 19:53:00,
2013-01-19 12:58:00,72.3,14.9,30.12,NNW,345,1.0,8.0,11,0.00,,---,0.00,VWS V14.01,2013-01-19 19:58:00,
2013-01-19 13:03:00,72.9,10.8,30.12,NNW,339,0.0,1.0,9,0.00,,---,0.00,VWS V14.01,2013-01-19 20:03:00,
2013-01-19 13:08:00,72.3,14.9,30.11,North,4,2.0,6.0,11,0.00,,---,0.00,VWS V14.01,2013-01-19 20:08:00,
2013-01-19 13:13:00,72.4,12.8,30.11,NNW,335,2.0,6.0,10,0.00,,---,0.00,VWS V14.01,2013-01-19 20:13:00,
2013-01-19 13:19:00,73.3,13.5,30.11,West,280,1.0,6.0,10,0.00,,---,0.00,VWS V14.01,2013-01-19 20:19:00,
2013-01-19 13:24:00,73.7,13.8,30.11,WNW,296,1.0,6.0,10,0.00,,---,0.00,VWS V14.01,2013-01-19 20:24:00,
2013-01-19 13:30:00,73.9,13.9,30.11,NNE,27,0.0,6.0,10,0.00,,---,0.00,VWS V14.01,2013-01-19 20:30:00,
2013-01-19 13:35:00,74.2,14.2,30.10,WNW,283,0.0,3.0,10,0.00,,---,0.00,VWS V14.01,2013-01-19 20:35:00,
2013-01-19 13:40:00,74.7,14.6,30.11,ENE,75,1.0,5.0,10,0.00,,---,0.00,VWS V14.01,2013-01-19 20:40:00,
2013-01-19 13:46:00,74.0,11.6,30.10,West,269,0.0,6.0,9,0.00,,---,0.00,VWS V14.01,2013-01-19 20:46:00,
2013-01-19 13:51:00,74.6,14.5,30.10,NNE,26,1.0,6.0,10,0.00,,---,0.00,VWS V14.01,2013-01-19 20:51:00,
2013-01-19 13:56:00,74.6,14.5,30.10,NE,42,6.0,7.0,10,0.00,,---,0.00,VWS V14.01,2013-01-19 20:56:00,
2013-01-19 14:02:00,74.7,14.6,30.10,WNW,291,4.0,7.0,10,0.00,,---,0.00,VWS V14.01,2013-01-19 21:02:00,
2013-01-19 14:07:00,74.7,14.6,30.10,NW,319,0.0,5.0,10,0.00,,---,0.00,VWS V14.01,2013-01-19 21:07:00,
2013-01-19 14:12:00,75.1,14.9,30.10,North,354,0.0,7.0,10,0.00,,---,0.00,VWS V14.01,2013-01-19 21:12:00,
2013-01-19 14:17:00,75.5,12.8,30.09,NNW,339,2.0,7.0,9,0.00,,---,0.00,VWS V14.01,2013-01-19 21:17:00,
2013-01-19 14:22:00,75.1,12.5,30.09,NW,326,3.0,9.0,9,0.00,,---,0.00,VWS V14.01,2013-01-19 21:22:00,
2013-01-19 14:28:00,75.2,12.5,30.09,NNW,347,3.0,9.0,9,0.00,,---,0.00,VWS V14.01,2013-01-19 21:28:00,
2013-01-19 14:33:00,75.2,12.5,30.09,North,353,2.0,9.0,9,0.00,,---,0.00,VWS V14.01,2013-01-19 21:33:00,
2013-01-19 14:39:00,75.5,12.8,30.09,ESE,105,2.0,5.0,9,0.00,,---,0.00,VWS V14.01,2013-01-19 21:39:00,
2013-01-19 14:44:00,75.5,12.8,30.09,NNE,13,3.0,6.0,9,0.00,,---,0.00,VWS V14.01,2013-01-19 21:44:00,
2013-01-19 14:49:00,75.1,14.9,30.09,West,274,2.0,6.0,10,0.00,,---,0.00,VWS V14.01,2013-01-19 21:49:00,
2013-01-19 14:55:00,75.3,12.6,30.09,WSW,248,2.0,6.0,9,0.00,,---,0.00,VWS V14.01,2013-01-19 21:55:00,
2013-01-19 15:00:00,75.3,15.0,30.09,NNE,20,3.0,6.0,10,0.00,,---,0.00,VWS V14.01,2013-01-19 22:00:00,
2013-01-19 15:05:00,75.0,14.8,30.08,NNE,30,4.0,5.0,10,0.00,,---,0.00,VWS V14.01,2013-01-19 22:05:00,
2013-01-19 15:10:00,74.9,14.7,30.09,West,264,1.0,6.0,10,0.00,,---,0.00,VWS V14.01,2013-01-19 22:10:00,
2013-01-19 15:15:00,75.4,15.1,30.09,NNE,18,3.0,6.0,10,0.00,,---,0.00,VWS V14.01,2013-01-19 22:15:00,
2013-01-19 15:20:00,75.3,17.2,30.08,NNW,338,2.0,6.0,11,0.00,,---,0.00,VWS V14.01,2013-01-19 22:20:00,
2013-01-19 15:25:00,75.4,17.3,30.08,WNW,288,1.0,7.0,11,0.00,,---,0.00,VWS V14.01,2013-01-19 22:25:00,
2013-01-19 15:30:00,75.6,19.5,30.08,NE,37,3.0,7.0,12,0.00,,---,0.00,VWS V14.01,2013-01-19 22:30:00,
2013-01-19 15:35:00,75.4,19.3,30.08,North,8,4.0,7.0,12,0.00,,---,0.00,VWS V14.01,2013-01-19 22:35:00,
2013-01-19 15:40:00,75.0,20.9,30.08,ENE,64,3.0,7.0,13,0.00,,---,0.00,VWS V14.01,2013-01-19 22:40:00,
2013-01-19 15:46:00,75.7,21.4,30.08,NW,307,0.0,7.0,13,0.00,,---,0.00,VWS V14.01,2013-01-19 22:46:00,
2013-01-19 15:51:00,75.6,21.3,30.08,WNW,294,0.0,7.0,13,0.00,,---,0.00,VWS V14.01,2013-01-19 22:51:00,
2013-01-19 15:56:00,75.4,21.2,30.08,NW,309,1.0,7.0,13,0.00,,---,0.00,VWS V14.01,2013-01-19 22:56:00,
2013-01-19 16:01:00,75.2,21.0,30.08,NE,47,2.0,7.0,13,0.00,,---,0.00,VWS V14.01,2013-01-19 23:01:00,
2013-01-19 16:07:00,75.1,20.9,30.08,NNW,334,1.0,4.0,13,0.00,,---,0.00,VWS V14.01,2013-01-19 23:07:00,
2013-01-19 16:12:00,75.3,21.1,30.08,WNW,284,2.0,4.0,13,0.00,,---,0.00,VWS V14.01,2013-01-19 23:12:00,
2013-01-19 16:17:00,75.1,20.9,30.08,NNW,342,2.0,4.0,13,0.00,,---,0.00,VWS V14.01,2013-01-19 23:17:00,
2013-01-19 16:22:00,74.8,20.7,30.08,WNW,284,2.0,4.0,13,0.00,,---,0.00,VWS V14.01,2013-01-19 23:22:00,
2013-01-19 16:27:00,75.2,21.0,30.08,NW,316,0.0,4.0,13,0.00,,---,0.00,VWS V14.01,2013-01-19 23:27:00,
2013-01-19 16:33:00,74.7,20.6,30.08,North,11,3.0,7.0,13,0.00,,---,0.00,VWS V14.01,2013-01-19 23:33:00,
2013-01-19 16:38:00,73.7,21.6,30.08,NE,34,2.0,7.0,14,0.00,,---,0.00,VWS V14.01,2013-01-19 23:38:00,
2013-01-19 16:43:00,73.5,21.4,30.08,North,351,2.0,7.0,14,0.00,,---,0.00,VWS V14.01,2013-01-19 23:43:00,
2013-01-19 16:48:00,73.7,21.6,30.08,West,263,1.0,7.0,14,0.00,,---,0.00,VWS V14.01,2013-01-19 23:48:00,
2013-01-19 16:53:00,73.7,19.8,30.08,WNW,296,1.0,7.0,13,0.00,,---,0.00,VWS V14.01,2013-01-19 23:53:00,
2013-01-19 16:59:00,73.1,19.4,30.08,NNE,13,2.0,7.0,13,0.00,,---,0.00,VWS V14.01,2013-01-19 23:59:00,
2013-01-19 17:04:00,72.7,20.8,30.08,NNE,22,2.0,4.0,14,0.00,,---,0.00,VWS V14.01,2013-01-20 00:04:00,
2013-01-19 17:09:00,72.2,20.4,30.08,NE,39,2.0,5.0,14,0.00,,---,0.00,VWS V14.01,2013-01-20 00:09:00,
2013-01-19 17:14:00,71.7,20.0,30.08,NNW,345,3.0,5.0,14,0.00,,---,0.00,VWS V14.01,2013-01-20 00:14:00,
2013-01-19 17:19:00,71.2,19.6,30.08,NNE,32,1.0,7.0,14,0.00,,---,0.00,VWS V14.01,2013-01-20 00:19:00,
2013-01-19 17:24:00,70.8,20.9,30.08,NNE,16,1.0,7.0,15,0.00,,---,0.00,VWS V14.01,2013-01-20 00:24:00,
2013-01-19 17:30:00,70.3,20.5,30.08,NNE,16,0.0,7.0,15,0.00,,---,0.00,VWS V14.01,2013-01-20 00:30:00,
2013-01-19 17:35:00,69.7,20.0,30.08,NNE,16,0.0,3.0,15,0.00,,---,0.00,VWS V14.01,2013-01-20 00:35:00,
2013-01-19 17:41:00,68.9,20.9,30.08,NNE,14,0.0,3.0,16,0.00,,---,0.00,VWS V14.01,2013-01-20 00:41:00,
2013-01-19 17:46:00,68.1,20.2,30.08,NNE,23,2.0,3.0,16,0.00,,---,0.00,VWS V14.01,2013-01-20 00:46:00,
2013-01-19 17:51:00,67.4,19.7,30.08,North,11,2.0,3.0,16,0.00,,---,0.00,VWS V14.01,2013-01-20 00:51:00,
2013-01-19 17:56:00,66.6,20.5,30.08,NNE,12,1.0,3.0,17,0.00,,---,0.00,VWS V14.01,2013-01-20 00:56:00,
2013-01-19 18:02:00,66.0,20.0,30.08,North,357,2.0,5.0,17,0.00,,---,0.00,VWS V14.01,2013-01-20 01:02:00,
2013-01-19 18:07:00,65.4,18.1,30.09,North,5,3.0,6.0,16,0.00,,---,0.00,VWS V14.01,2013-01-20 01:07:00,
2013-01-19 18:12:00,64.9,17.7,30.09,North,352,3.0,7.0,16,0.00,,---,0.00,VWS V14.01,2013-01-20 01:12:00,
2013-01-19 18:18:00,64.3,18.6,30.09,NW,321,4.0,7.0,17,0.00,,---,0.00,VWS V14.01,2013-01-20 01:18:00,
2013-01-19 18:23:00,63.9,18.3,30.09,NNE,13,1.0,8.0,17,0.00,,---,0.00,VWS V14.01,2013-01-20 01:23:00,
2013-01-19 18:28:00,63.5,17.9,30.10,NE,34,4.0,8.0,17,0.00,,---,0.00,VWS V14.01,2013-01-20 01:28:00,
2013-01-19 18:34:00,62.9,17.5,30.10,NW,310,2.0,6.0,17,0.00,,---,0.00,VWS V14.01,2013-01-20 01:34:00,
2013-01-19 18:39:00,62.5,17.1,30.10,NNE,18,3.0,8.0,17,0.00,,---,0.00,VWS V14.01,2013-01-20 01:39:00,
2013-01-19 18:44:00,62.2,16.9,30.10,NNE,22,3.0,8.0,17,0.00,,---,0.00,VWS V14.01,2013-01-20 01:44:00,
2013-01-19 18:49:00,61.9,16.6,30.10,NE,34,4.0,10.0,17,0.00,,---,0.00,VWS V14.01,2013-01-20 01:49:00,
2013-01-19 18:54:00,61.7,16.5,30.10,NNW,347,4.0,10.0,17,0.00,,---,0.00,VWS V14.01,2013-01-20 01:54:00,
2013-01-19 18:59:00,61.5,17.6,30.10,North,11,2.0,10.0,18,0.00,,---,0.00,VWS V14.01,2013-01-20 01:59:00,
2013-01-19 19:05:00,61.2,17.4,30.10,North,5,5.0,9.0,18,0.00,,---,0.00,VWS V14.01,2013-01-20 02:05:00,
2013-01-19 19:10:00,60.8,17.0,30.10,North,8,4.0,9.0,18,0.00,,---,0.00,VWS V14.01,2013-01-20 02:10:00,
2013-01-19 19:15:00,60.6,16.9,30.11,North,11,5.0,9.0,18,0.00,,---,0.00,VWS V14.01,2013-01-20 02:15:00,
2013-01-19 19:21:00,60.4,16.7,30.11,NW,304,2.0,9.0,18,0.00,,---,0.00,VWS V14.01,2013-01-20 02:21:00,
2013-01-19 19:26:00,60.2,16.6,30.11,NNE,23,2.0,9.0,18,0.00,,---,0.00,VWS V14.01,2013-01-20 02:26:00,
2013-01-19 19:31:00,59.8,16.2,30.11,NE,46,4.0,9.0,18,0.00,,---,0.00,VWS V14.01,2013-01-20 02:31:00,
2013-01-19 19:37:00,59.5,16.0,30.11,NNE,24,5.0,6.0,18,0.00,,---,0.00,VWS V14.01,2013-01-20 02:37:00,
2013-01-19 19:42:00,59.3,15.8,30.11,NNE,16,3.0,7.0,18,0.00,,---,0.00,VWS V14.01,2013-01-20 02:42:00,
2013-01-19 19:47:00,59.1,15.7,30.11,NNE,16,3.0,7.0,18,0.00,,---,0.00,VWS V14.01,2013-01-20 02:47:00,
2013-01-19 19:52:00,58.8,16.7,30.11,NNE,30,2.0,7.0,19,0.00,,---,0.00,VWS V14.01,2013-01-20 02:52:00,
2013-01-19 19:57:00,58.5,16.4,30.11,NNE,18,2.0,7.0,19,0.00,,---,0.00,VWS V14.01,2013-01-20 02:57:00,
2013-01-19 20:03:00,58.1,16.1,30.11,NNE,32,1.0,7.0,19,0.00,,---,0.00,VWS V14.01,2013-01-20 03:03:00,
2013-01-19 20:08:00,57.7,15.8,30.11,NE,53,1.0,3.0,19,0.00,,---,0.00,VWS V14.01,2013-01-20 03:08:00,
2013-01-19 20:13:00,57.5,15.6,30.12,NNE,25,4.0,5.0,19,0.00,,---,0.00,VWS V14.01,2013-01-20 03:13:00,
2013-01-19 20:18:00,57.6,15.7,30.12,NE,43,3.0,5.0,19,0.00,,---,0.00,VWS V14.01,2013-01-20 03:18:00,
2013-01-19 20:23:00,57.4,15.5,30.12,NE,46,2.0,5.0,19,0.00,,---,0.00,VWS V14.01,2013-01-20 03:23:00,
2013-01-19 20:29:00,56.9,16.3,30.12,ENE,58,1.0,5.0,20,0.00,,---,0.00,VWS V14.01,2013-01-20 03:29:00,
2013-01-19 20:35:00,56.1,15.6,30.12,ENE,67,2.0,3.0,20,0.00,,---,0.00,VWS V14.01,2013-01-20 03:35:00,
2013-01-19 20:40:00,55.8,16.5,30.11,NE,44,1.0,4.0,21,0.00,,---,0.00,VWS V14.01,2013-01-20 03:40:00,
2013-01-19 20:45:00,55.3,16.0,30.12,NNE,32,2.0,4.0,21,0.00,,---,0.00,VWS V14.01,2013-01-20 03:45:00,
2013-01-19 20:50:00,54.9,16.8,30.12,NE,53,0.0,4.0,22,0.00,,---,0.00,VWS V14.01,2013-01-20 03:50:00,
2013-01-19 20:55:00,54.2,16.2,30.12,ENE,59,1.0,4.0,22,0.00,,---,0.00,VWS V14.01,2013-01-20 03:55:00,
2013-01-19 21:00:00,53.6,16.7,30.12,ENE,60,1.0,4.0,23,0.00,,---,0.00,VWS V14.01,2013-01-20 04:00:00,
2013-01-19 21:05:00,53.0,17.2,30.12,ENE,59,0.0,1.0,24,0.00,,---,0.00,VWS V14.01,2013-01-20 04:05:00,
2013-01-19 21:10:00,52.4,17.6,30.12,ESE,110,0.0,1.0,25,0.00,,---,0.00,VWS V14.01,2013-01-20 04:10:00,
2013-01-19 21:15:00,51.6,17.9,30.12,ESE,114,0.0,1.0,26,0.00,,---,0.00,VWS V14.01,2013-01-20 04:15:00,
2013-01-19 21:20:00,51.0,17.3,30.13,ESE,114,0.0,1.0,26,0.00,,---,0.00,VWS V14.01,2013-01-20 04:20:00,
2013-01-19 21:25:00,50.6,17.9,30.12,ESE,113,0.0,1.0,27,0.00,,---,0.00,VWS V14.01,2013-01-20 04:25:00,
2013-01-19 21:31:00,50.8,17.2,30.13,ENE,67,0.0,1.0,26,0.00,,---,0.00,VWS V14.01,2013-01-20 04:31:00,
2013-01-19 21:36:00,50.9,17.2,30.13,ENE,68,0.0,1.0,26,0.00,,---,0.00,VWS V14.01,2013-01-20 04:36:00,
2013-01-19 21:41:00,50.7,18.0,30.13,ENE,68,0.0,1.0,27,0.00,,---,0.00,VWS V14.01,2013-01-20 04:41:00,
2013-01-19 21:47:00,50.0,18.2,30.13,ENE,68,0.0,1.0,28,0.00,,---,0.00,VWS V14.01,2013-01-20 04:47:00,
2013-01-19 21:52:00,49.5,18.6,30.14,ENE,68,0.0,1.0,29,0.00,,---,0.00,VWS V14.01,2013-01-20 04:52:00,
2013-01-19 21:57:00,49.5,18.6,30.14,ENE,67,0.0,1.0,29,0.00,,---,0.00,VWS V14.01,2013-01-20 04:57:00,
2013-01-19 22:00:00,49.6,18.7,30.14,ENE,65,1.0,2.0,29,0.00,,---,0.00,VWS V14.01,2013-01-20 05:00:00,
2013-01-19 22:02:00,49.6,18.7,30.14,ENE,65,0.0,2.0,29,0.00,,---,0.00,VWS V14.01,2013-01-20 05:02:00,
2013-01-19 22:03:00,49.5,18.6,30.14,ENE,65,0.0,0.0,29,0.00,,---,0.00,VWS V14.01,2013-01-20 05:03:00,
2013-01-19 22:08:00,49.1,18.2,30.14,ENE,65,0.0,1.0,29,0.00,,---,0.00,VWS V14.01,2013-01-20 05:08:00,
2013-01-19 22:13:00,48.6,18.6,30.14,NE,47,1.0,2.0,30,0.00,,---,0.00,VWS V14.01,2013-01-20 05:13:00,
2013-01-19 22:18:00,48.3,19.1,30.14,NE,56,2.0,2.0,31,0.00,,---,0.00,VWS V14.01,2013-01-20 05:18:00,
2013-01-19 22:23:00,48.1,18.9,30.14,NNW,343,0.0,3.0,31,0.00,,---,0.00,VWS V14.01,2013-01-20 05:23:00,
2013-01-19 22:28:00,47.7,18.6,30.14,NE,44,2.0,3.0,31,0.00,,---,0.00,VWS V14.01,2013-01-20 05:28:00,
2013-01-19 22:33:00,48.1,18.1,30.14,NE,51,2.0,4.0,30,0.00,,---,0.00,VWS V14.01,2013-01-20 05:33:00,
2013-01-19 22:38:00,48.2,18.2,30.14,NE,36,2.0,4.0,30,0.00,,---,0.00,VWS V14.01,2013-01-20 05:38:00,
2013-01-19 22:43:00,48.3,18.3,30.14,NNE,25,3.0,5.0,30,0.00,,---,0.00,VWS V14.01,2013-01-20 05:43:00,
2013-01-19 22:48:00,48.3,18.3,30.14,NE,51,2.0,5.0,30,0.00,,---,0.00,VWS V14.01,2013-01-20 05:48:00,
2013-01-19 22:53:00,48.2,18.2,30.14,NE,47,2.0,5.0,30,0.00,,---,0.00,VWS V14.01,2013-01-20 05:53:00,
2013-01-19 22:58:00,48.0,18.1,30.14,NE,51,2.0,5.0,30,0.00,,---,0.00,VWS V14.01,2013-01-20 05:58:00,
2013-01-19 23:03:00,47.7,17.8,30.14,NE,51,2.0,3.0,30,0.00,,---,0.00,VWS V14.01,2013-01-20 06:03:00,
2013-01-19 23:09:00,47.3,18.2,30.14,NE,49,2.0,5.0,31,0.00,,---,0.00,VWS V14.01,2013-01-20 06:09:00,
2013-01-19 23:14:00,47.3,18.2,30.14,NE,36,3.0,5.0,31,0.00,,---,0.00,VWS V14.01,2013-01-20 06:14:00,
2013-01-19 23:19:00,47.6,18.5,30.13,NE,50,2.0,5.0,31,0.00,,---,0.00,VWS V14.01,2013-01-20 06:19:00,
2013-01-19 23:24:00,47.9,18.0,30.13,NE,56,4.0,6.0,30,0.00,,---,0.00,VWS V14.01,2013-01-20 06:24:00,
2013-01-19 23:29:00,47.9,18.0,30.13,NE,47,3.0,6.0,30,0.00,,---,0.00,VWS V14.01,2013-01-20 06:29:00,
2013-01-19 23:34:00,48.0,18.1,30.13,NE,48,3.0,5.0,30,0.00,,---,0.00,VWS V14.01,2013-01-20 06:34:00,
2013-01-19 23:39:00,48.0,18.1,30.13,NE,50,4.0,5.0,30,0.00,,---,0.00,VWS V14.01,2013-01-20 06:39:00,
2013-01-19 23:44:00,48.4,18.4,30.13,NE,49,5.0,6.0,30,0.00,,---,0.00,VWS V14.01,2013-01-20 06:44:00,
2013-01-19 23:49:00,49.0,18.1,30.13,NE,53,3.0,6.0,29,0.00,,---,0.00,VWS V14.01,2013-01-20 06:49:00,
2013-01-19 23:54:00,49.3,17.6,30.13,NE,42,3.0,6.0,28,0.00,,---,0.00,VWS V14.01,2013-01-20 06:54:00,
2013-01-19 23:59:00,50.0,18.2,30.13,ENE,58,4.0,7.0,28,0.00,,---,0.00,VWS V14.01,2013-01-20 06:59:00,